createdAt,value
2019-05-29T00:01:45.540Z,2.40
2019-05-29T00:04:15.463Z,2.20
2019-05-29T00:06:45.575Z,2.13
2019-05-29T00:09:15.634Z,2.30
2019-05-29T00:11:45.586Z,2.10
2019-05-29T00:14:26.575Z,2.03
2019-05-29T00:16:47.198Z,2.30
2019-05-29T00:19:17.217Z,2.17
2019-05-29T00:21:47.149Z,1.90
2019-05-29T00:24:17.112Z,2.53
2019-05-29T00:26:47.123Z,1.80
2019-05-29T00:29:17.917Z,2.27
2019-05-29T00:31:48.069Z,1.90
2019-05-29T00:34:18.369Z,2.30
2019-05-29T00:36:49.029Z,2.13
2019-05-29T00:39:19.015Z,1.63
2019-05-29T00:41:49.080Z,2.20
2019-05-29T00:44:33.626Z,2.10
2019-05-29T00:46:52.333Z,1.87
2019-05-29T00:49:22.456Z,2.17
2019-05-29T00:51:52.492Z,2.40
2019-05-29T00:54:22.547Z,2.10
2019-05-29T00:56:52.751Z,2.40
2019-05-29T00:59:23.044Z,2.33
2019-05-29T01:01:53.131Z,2.43
2019-05-29T01:04:26.034Z,2.57
2019-05-29T01:06:56.063Z,2.27
2019-05-29T01:09:25.960Z,2.57
2019-05-29T01:11:55.885Z,2.20
2019-05-29T01:14:25.974Z,2.23
2019-05-29T01:16:55.935Z,2.67
2019-05-29T01:19:26.040Z,2.50
2019-05-29T01:21:57.519Z,2.70
2019-05-29T01:24:27.725Z,2.80
2019-05-29T01:26:58.477Z,2.97
2019-05-29T01:29:28.500Z,2.43
2019-05-29T01:31:58.430Z,2.67
2019-05-29T01:34:28.555Z,2.80
2019-05-29T01:36:58.513Z,3.00
2019-05-29T01:39:28.465Z,3.67
2019-05-29T01:41:58.414Z,4.00
2019-05-29T01:44:28.339Z,3.60
2019-05-29T01:46:58.267Z,4.17
2019-05-29T01:49:28.865Z,4.17
2019-05-29T01:51:58.833Z,5.80
2019-05-29T01:54:28.755Z,5.77
2019-05-29T01:56:58.765Z,7.90
2019-05-29T01:59:28.935Z,7.90
2019-05-29T02:01:58.919Z,9.03
2019-05-29T02:04:29.088Z,9.07
2019-05-29T02:06:59.131Z,9.50
2019-05-29T02:09:32.525Z,10.27
2019-05-29T02:12:02.919Z,11.40
2019-05-29T02:14:32.945Z,11.43
2019-05-29T02:17:02.887Z,13.67
2019-05-29T02:19:32.872Z,13.13
2019-05-29T02:22:02.748Z,12.60
2019-05-29T02:24:32.670Z,16.00
2019-05-29T02:27:02.546Z,15.60
2019-05-29T02:29:32.608Z,12.90
2019-05-29T02:32:03.033Z,14.67
2019-05-29T02:34:32.943Z,16.10
2019-05-29T02:37:02.804Z,16.73
2019-05-29T02:39:32.704Z,15.10
2019-05-29T02:42:02.665Z,16.90
2019-05-29T02:44:32.989Z,16.80
2019-05-29T02:47:02.878Z,16.90
2019-05-29T02:49:32.769Z,19.40
2019-05-29T02:52:02.635Z,19.60
2019-05-29T02:54:32.590Z,16.87
2019-05-29T02:57:02.473Z,18.97
2019-05-29T02:59:32.565Z,17.20
2019-05-29T03:02:02.578Z,17.97
2019-05-29T03:04:33.173Z,17.60
2019-05-29T03:07:03.734Z,18.63
2019-05-29T03:09:34.395Z,20.03
2019-05-29T03:12:04.430Z,19.20
2019-05-29T03:14:35.000Z,19.27
2019-05-29T03:17:05.389Z,18.77
2019-05-29T03:19:35.406Z,20.70
2019-05-29T03:22:05.387Z,19.93
2019-05-29T03:24:35.602Z,20.03
2019-05-29T03:27:05.798Z,19.60
2019-05-29T03:29:36.136Z,18.63
2019-05-29T03:32:13.328Z,17.43
2019-05-29T03:34:45.584Z,19.13
2019-05-29T03:37:09.443Z,20.70
2019-05-29T03:39:39.345Z,19.80
2019-05-29T03:42:09.275Z,21.10
2019-05-29T03:44:39.611Z,20.60
2019-05-29T03:47:09.739Z,17.03
2019-05-29T03:49:39.703Z,19.67
2019-05-29T03:52:09.643Z,17.90
2019-05-29T03:54:40.160Z,18.10
2019-05-29T03:57:10.053Z,20.53
2019-05-29T03:59:39.955Z,19.60
2019-05-29T04:02:10.134Z,20.27
2019-05-29T04:04:40.350Z,21.37
2019-05-29T04:07:10.223Z,20.63
2019-05-29T04:09:40.145Z,19.40
2019-05-29T04:12:10.082Z,19.07
2019-05-29T04:14:40.332Z,19.63
2019-05-29T04:17:11.141Z,25.13
2019-05-29T04:19:41.417Z,22.67
2019-05-29T04:22:12.549Z,21.73
2019-05-29T04:24:42.627Z,22.43
2019-05-29T04:27:14.215Z,20.27
2019-05-29T04:29:45.323Z,21.93
2019-05-29T04:32:15.233Z,21.80
2019-05-29T04:34:45.343Z,22.17
2019-05-29T04:37:15.235Z,22.10
2019-05-29T04:39:45.172Z,22.50
2019-05-29T04:42:15.122Z,22.70
2019-05-29T04:44:45.028Z,21.63
2019-05-29T04:47:15.034Z,19.40
2019-05-29T04:49:44.998Z,20.70
2019-05-29T04:52:14.966Z,12.77
2019-05-29T04:54:44.890Z,19.40
2019-05-29T04:57:14.776Z,24.07
2019-05-29T04:59:44.818Z,19.47
2019-05-29T05:02:14.685Z,24.00
2019-05-29T05:04:44.577Z,20.70
2019-05-29T05:07:14.497Z,23.93
2019-05-29T05:09:44.406Z,23.13
2019-05-29T05:12:14.282Z,25.70
2019-05-29T05:14:44.386Z,22.77
2019-05-29T05:17:25.726Z,21.43
2019-05-29T05:19:46.132Z,21.80
2019-05-29T05:22:15.999Z,22.37
2019-05-29T05:24:46.121Z,21.27
2019-05-29T05:27:16.127Z,21.77
2019-05-29T05:29:46.091Z,26.27
2019-05-29T05:32:16.028Z,20.57
2019-05-29T05:34:45.978Z,24.17
2019-05-29T05:37:15.865Z,22.30
2019-05-29T05:39:45.823Z,23.33
2019-05-29T05:42:15.701Z,23.47
2019-05-29T05:44:45.606Z,22.67
2019-05-29T05:47:15.477Z,23.50
2019-05-29T05:49:45.436Z,25.00
2019-05-29T05:52:15.427Z,23.70
2019-05-29T05:54:45.298Z,21.57
2019-05-29T05:57:15.279Z,22.77
2019-05-29T05:59:46.185Z,24.97
2019-05-29T06:02:16.137Z,22.37
2019-05-29T06:04:46.036Z,21.60
2019-05-29T06:07:15.942Z,24.57
2019-05-29T06:09:45.899Z,23.93
2019-05-29T06:12:15.857Z,23.20
2019-05-29T06:14:45.833Z,20.80
2019-05-29T06:17:15.762Z,22.70
2019-05-29T06:19:45.662Z,21.33
2019-05-29T06:22:15.621Z,22.97
2019-05-29T06:24:45.764Z,21.80
2019-05-29T06:27:15.698Z,21.43
2019-05-29T06:29:46.315Z,24.23
2019-05-29T06:32:16.333Z,22.17
2019-05-29T06:34:46.263Z,23.57
2019-05-29T06:37:16.204Z,22.70
2019-05-29T06:39:46.088Z,23.43
2019-05-29T06:42:16.034Z,23.23
2019-05-29T06:44:48.533Z,22.23
2019-05-29T06:47:17.695Z,20.57
2019-05-29T06:49:47.569Z,20.87
2019-05-29T06:52:17.499Z,20.27
2019-05-29T06:54:48.174Z,21.17
2019-05-29T06:57:18.158Z,20.23
2019-05-29T06:59:48.913Z,20.43
2019-05-29T07:02:19.085Z,19.00
2019-05-29T07:04:49.044Z,19.17
2019-05-29T07:07:19.046Z,18.87
2019-05-29T07:09:48.984Z,20.47
2019-05-29T07:12:18.932Z,20.43
2019-05-29T07:14:48.821Z,18.90
2019-05-29T07:17:18.729Z,20.00
2019-05-29T07:20:00.112Z,17.27
2019-05-29T07:22:20.390Z,18.73
2019-05-29T07:24:50.273Z,20.20
2019-05-29T07:27:20.191Z,19.00
2019-05-29T07:29:50.086Z,19.13
2019-05-29T07:32:20.059Z,17.20
2019-05-29T07:35:02.653Z,16.70
2019-05-29T07:37:21.576Z,14.37
2019-05-29T07:39:51.439Z,16.70
2019-05-29T07:42:21.520Z,17.00
2019-05-29T07:44:51.402Z,16.60
2019-05-29T07:47:21.911Z,17.67
2019-05-29T07:49:51.869Z,16.07
2019-05-29T07:52:21.790Z,15.43
2019-05-29T07:54:51.698Z,15.67
2019-05-29T07:57:21.602Z,14.80
2019-05-29T07:59:51.510Z,13.50
2019-05-29T08:02:21.415Z,15.17
2019-05-29T08:04:51.323Z,14.23
2019-05-29T08:07:21.443Z,13.87
2019-05-29T08:09:51.423Z,14.27
2019-05-29T08:12:21.310Z,14.77
2019-05-29T08:14:51.247Z,12.57
2019-05-29T08:17:21.191Z,11.77
2019-05-29T08:20:05.398Z,12.53
2019-05-29T08:22:33.850Z,11.67
2019-05-29T08:24:54.416Z,11.77
2019-05-29T08:27:24.303Z,12.27
2019-05-29T08:29:54.295Z,11.63
2019-05-29T08:32:24.193Z,10.40
2019-05-29T08:34:54.223Z,10.43
2019-05-29T08:37:24.262Z,10.43
2019-05-29T08:39:54.668Z,10.60
2019-05-29T08:42:24.646Z,9.50
2019-05-29T08:44:54.650Z,9.37
2019-05-29T08:47:24.555Z,8.20
2019-05-29T08:49:54.776Z,8.20
2019-05-29T08:52:24.664Z,9.27
2019-05-29T08:54:54.568Z,8.07
2019-05-29T08:57:24.556Z,8.10
2019-05-29T08:59:54.707Z,8.13
2019-05-29T09:02:24.676Z,9.27
2019-05-29T09:04:54.974Z,7.40
2019-05-29T09:07:24.918Z,7.57
2019-05-29T09:09:54.911Z,8.10
2019-05-29T09:12:25.097Z,6.53
2019-05-29T09:14:55.201Z,6.97
2019-05-29T09:17:25.143Z,6.80
2019-05-29T09:19:55.325Z,6.90
2019-05-29T09:22:25.224Z,7.77
2019-05-29T09:24:55.475Z,6.90
2019-05-29T09:27:25.340Z,5.67
2019-05-29T09:29:55.348Z,5.00
2019-05-29T09:32:48.642Z,5.20
2019-05-29T09:34:56.978Z,6.63
2019-05-29T09:37:26.880Z,6.10
2019-05-29T09:39:56.746Z,4.50
2019-05-29T09:42:26.745Z,5.53
2019-05-29T09:44:56.606Z,5.43
2019-05-29T09:47:26.584Z,5.30
2019-05-29T09:49:56.585Z,5.90
2019-05-29T09:52:30.482Z,6.07
2019-05-29T09:54:58.315Z,5.20
2019-05-29T09:57:28.444Z,6.37
2019-05-29T09:59:59.941Z,5.30
2019-05-29T10:02:29.988Z,5.33
2019-05-29T10:05:01.086Z,5.37
2019-05-29T10:07:31.824Z,4.73
2019-05-29T10:10:04.644Z,4.87
2019-05-29T10:12:33.349Z,4.40
2019-05-29T10:15:04.401Z,4.40
2019-05-29T10:17:34.322Z,4.67
2019-05-29T10:20:05.097Z,4.30
2019-05-29T10:22:35.012Z,5.00
2019-05-29T10:25:05.860Z,5.43
2019-05-29T10:27:35.905Z,4.50
2019-05-29T10:30:06.862Z,5.70
2019-05-29T10:32:36.855Z,5.40
2019-05-29T10:35:07.026Z,5.33
2019-05-29T10:37:37.092Z,5.40
2019-05-29T10:40:07.885Z,5.10
2019-05-29T10:42:37.978Z,5.47
2019-05-29T10:45:08.650Z,5.07
2019-05-29T10:47:38.859Z,5.53
2019-05-29T10:50:09.433Z,5.90
2019-05-29T10:52:39.498Z,5.60
2019-05-29T10:55:10.878Z,5.57
2019-05-29T10:57:41.059Z,5.70
2019-05-29T11:00:11.765Z,5.93
2019-05-29T11:02:41.699Z,5.90
2019-05-29T11:05:11.744Z,6.23
2019-05-29T11:07:41.818Z,5.33
2019-05-29T11:10:13.633Z,5.33
2019-05-29T11:12:43.947Z,5.27
2019-05-29T11:15:21.232Z,4.37
2019-05-29T11:17:47.171Z,4.93
2019-05-29T11:20:18.123Z,4.10
2019-05-29T11:22:48.139Z,5.73
2019-05-29T11:25:24.856Z,3.83
2019-05-29T11:27:50.495Z,4.97
2019-05-29T11:30:20.813Z,4.47
2019-05-29T11:32:53.053Z,3.87
2019-05-29T11:35:23.493Z,3.43
2019-05-29T11:37:54.628Z,4.30
2019-05-29T11:40:24.920Z,4.13
2019-05-29T11:42:55.175Z,4.07
2019-05-29T11:45:25.525Z,4.00
2019-05-29T11:47:57.341Z,4.10
2019-05-29T11:50:28.550Z,3.80
2019-05-29T11:52:58.624Z,3.90
2019-05-29T11:55:28.630Z,3.60
2019-05-29T11:57:59.783Z,4.23
2019-05-29T12:00:30.192Z,4.07
2019-05-29T12:03:01.737Z,3.70
2019-05-29T12:05:31.628Z,4.43
2019-05-29T12:08:01.978Z,4.30
2019-05-29T12:10:31.966Z,4.20
2019-05-29T12:13:01.974Z,4.43
2019-05-29T12:15:31.936Z,4.00
2019-05-29T12:18:20.001Z,3.57
2019-05-29T12:20:33.609Z,3.63
2019-05-29T12:23:26.213Z,3.70
2019-05-29T12:25:35.276Z,4.07
2019-05-29T12:28:05.348Z,4.47
2019-05-29T12:30:35.745Z,4.17
2019-05-29T12:33:10.387Z,4.20
2019-05-29T12:35:40.330Z,3.87
2019-05-29T12:38:10.325Z,3.37
2019-05-29T12:40:40.233Z,3.67
2019-05-29T12:43:26.017Z,3.60
2019-05-29T12:45:41.849Z,3.80
2019-05-29T12:48:14.530Z,3.60
2019-05-29T12:50:43.459Z,4.03
2019-05-29T12:53:28.988Z,4.27
2019-05-29T12:55:44.956Z,4.27
2019-05-29T12:58:14.849Z,4.27
2019-05-29T13:00:44.814Z,3.20
2019-05-29T13:03:14.816Z,3.90
2019-05-29T13:05:45.176Z,3.50
2019-05-29T13:08:15.296Z,3.50
2019-05-29T13:10:45.238Z,2.60
2019-05-29T13:13:15.209Z,2.80
2019-05-29T13:15:45.148Z,3.57
2019-05-29T13:18:16.331Z,3.07
2019-05-29T13:20:46.315Z,2.53
2019-05-29T13:23:16.255Z,2.57
2019-05-29T13:25:46.443Z,2.23
2019-05-29T13:28:16.400Z,3.10
2019-05-29T13:30:46.332Z,2.80
2019-05-29T13:33:16.318Z,3.00
2019-05-29T13:35:46.243Z,3.07
2019-05-29T13:38:16.209Z,2.37
2019-05-29T13:40:46.166Z,2.63
2019-05-29T13:43:16.278Z,2.77
2019-05-29T13:45:46.325Z,2.10
2019-05-29T13:48:16.388Z,3.33
2019-05-29T13:50:48.723Z,3.40
2019-05-29T13:53:17.915Z,2.60
2019-05-29T13:55:47.776Z,2.30
2019-05-29T13:58:17.669Z,2.53
2019-05-29T14:00:47.810Z,2.10
2019-05-29T14:03:17.947Z,1.97
2019-05-29T14:05:47.921Z,2.30
2019-05-29T14:08:18.030Z,2.40
2019-05-29T14:10:47.964Z,2.80
2019-05-29T14:13:17.923Z,2.77
2019-05-29T14:15:47.845Z,3.23
2019-05-29T14:18:17.790Z,3.33
2019-05-29T14:20:48.130Z,2.77
2019-05-29T14:23:18.029Z,3.20
2019-05-29T14:25:47.951Z,2.70
2019-05-29T14:28:17.822Z,2.57
2019-05-29T14:30:47.877Z,2.67
2019-05-29T14:33:17.956Z,3.07
2019-05-29T14:35:48.060Z,2.60
2019-05-29T14:38:18.093Z,2.63
2019-05-29T14:40:48.598Z,2.70
2019-05-29T14:43:18.481Z,3.57
2019-05-29T14:45:48.436Z,2.97
2019-05-29T14:48:18.324Z,3.30
2019-05-29T14:50:48.313Z,2.10
2019-05-29T14:53:18.208Z,2.70
2019-05-29T14:55:48.096Z,2.50
2019-05-29T14:58:17.979Z,2.00
2019-05-29T15:00:47.995Z,1.90
2019-05-29T15:03:18.258Z,2.10
2019-05-29T15:05:48.157Z,2.03
2019-05-29T15:08:18.111Z,1.97
2019-05-29T15:10:48.075Z,2.23
2019-05-29T15:13:17.976Z,2.67
2019-05-29T15:15:48.427Z,2.53
2019-05-29T15:18:19.235Z,2.20
2019-05-29T15:20:49.505Z,2.30
2019-05-29T15:23:19.801Z,2.33
2019-05-29T15:25:49.722Z,2.57
2019-05-29T15:28:19.595Z,2.03
2019-05-29T15:30:49.522Z,2.37
2019-05-29T15:33:19.542Z,3.00
2019-05-29T15:35:49.468Z,3.10
2019-05-29T15:38:19.346Z,2.63
2019-05-29T15:40:49.785Z,3.07
2019-05-29T15:43:19.690Z,3.17
2019-05-29T15:45:50.533Z,3.27
2019-05-29T15:48:20.541Z,3.40
2019-05-29T15:50:50.558Z,3.23
2019-05-29T15:53:20.495Z,4.10
2019-05-29T15:55:50.426Z,3.40
2019-05-29T15:58:20.307Z,3.63
2019-05-29T16:00:50.214Z,4.00
2019-05-29T16:03:20.763Z,4.27
2019-05-29T16:05:50.690Z,4.00
2019-05-29T16:08:20.633Z,4.10
2019-05-29T16:10:50.552Z,3.50
2019-05-29T16:13:20.426Z,3.70
2019-05-29T16:15:50.400Z,3.27
2019-05-29T16:18:28.131Z,3.87
2019-05-29T16:20:52.301Z,3.47
2019-05-29T16:23:34.971Z,3.10
2019-05-29T16:25:54.440Z,2.83
2019-05-29T16:28:24.305Z,3.67
2019-05-29T16:30:54.656Z,3.00
2019-05-29T16:33:24.543Z,2.60
2019-05-29T16:35:54.575Z,2.67
2019-05-29T16:38:24.526Z,2.77
2019-05-29T16:40:54.458Z,3.00
2019-05-29T16:43:24.526Z,3.10
2019-05-29T16:45:55.178Z,3.40
2019-05-29T16:48:25.076Z,2.67
2019-05-29T16:50:55.058Z,2.63
2019-05-29T16:53:24.929Z,3.27
2019-05-29T16:55:54.830Z,2.63
2019-05-29T16:58:24.767Z,3.10
2019-05-29T17:00:54.666Z,3.23
2019-05-29T17:03:24.523Z,2.70
2019-05-29T17:05:55.178Z,2.90
2019-05-29T17:08:25.090Z,3.60
2019-05-29T17:10:55.030Z,3.07
2019-05-29T17:13:24.941Z,2.53
2019-05-29T17:15:54.880Z,3.27
2019-05-29T17:18:25.103Z,3.10
2019-05-29T17:20:55.116Z,2.90
2019-05-29T17:23:25.189Z,2.50
2019-05-29T17:26:09.550Z,2.10
2019-05-29T17:28:28.336Z,2.23
2019-05-29T17:31:01.997Z,2.50
2019-05-29T17:33:30.016Z,2.57
2019-05-29T17:36:00.138Z,2.73
2019-05-29T17:38:30.092Z,3.60
2019-05-29T17:40:59.974Z,2.40
2019-05-29T17:43:29.842Z,2.40
2019-05-29T17:45:59.745Z,5.37
2019-05-29T17:48:30.290Z,2.17
2019-05-29T17:51:00.277Z,2.17
2019-05-29T17:53:30.164Z,2.07
2019-05-29T17:56:00.078Z,2.50
2019-05-29T17:58:30.318Z,2.80
2019-05-29T18:01:00.272Z,2.30
2019-05-29T18:03:30.289Z,2.70
2019-05-29T18:06:00.269Z,2.30
2019-05-29T18:08:30.487Z,2.47
2019-05-29T18:11:00.390Z,2.53
2019-05-29T18:13:30.377Z,2.90
2019-05-29T18:16:00.322Z,2.40
2019-05-29T18:18:30.210Z,3.10
2019-05-29T18:21:00.080Z,3.40
2019-05-29T18:23:30.011Z,3.20
2019-05-29T18:25:59.884Z,3.57
2019-05-29T18:28:30.017Z,4.57
2019-05-29T18:31:00.460Z,4.50
2019-05-29T18:33:30.478Z,5.60
2019-05-29T18:36:00.418Z,4.00
2019-05-29T18:38:30.339Z,4.17
2019-05-29T18:41:00.228Z,3.73
2019-05-29T18:43:30.423Z,4.50
2019-05-29T18:46:00.389Z,4.63
2019-05-29T18:48:32.311Z,4.57
2019-05-29T18:51:02.199Z,4.50
2019-05-29T18:53:33.109Z,4.90
2019-05-29T18:56:03.067Z,5.03
2019-05-29T18:58:33.025Z,5.40
2019-05-29T19:01:03.489Z,4.60
2019-05-29T19:03:33.656Z,5.37
2019-05-29T19:06:03.537Z,4.60
2019-05-29T19:08:33.470Z,7.80
2019-05-29T19:11:03.641Z,6.40
2019-05-29T19:13:33.834Z,6.70
2019-05-29T19:16:03.886Z,6.30
2019-05-29T19:18:34.023Z,10.40
2019-05-29T19:21:03.904Z,11.10
2019-05-29T19:23:33.817Z,9.43
2019-05-29T19:26:03.996Z,8.27
2019-05-29T19:28:34.330Z,6.30
2019-05-29T19:31:04.239Z,6.20
2019-05-29T19:33:34.218Z,6.37
2019-05-29T19:36:04.326Z,7.87
2019-05-29T19:38:34.312Z,6.20
2019-05-29T19:41:04.270Z,6.70
2019-05-29T19:43:34.557Z,6.63
2019-05-29T19:46:04.514Z,6.40
2019-05-29T19:48:35.279Z,7.77
2019-05-29T19:51:05.335Z,6.53
2019-05-29T19:53:35.687Z,7.43
2019-05-29T19:56:05.872Z,6.90
2019-05-29T19:58:36.599Z,7.60
2019-05-29T20:01:07.315Z,7.80
2019-05-29T20:03:37.281Z,8.20
2019-05-29T20:06:07.285Z,9.00
2019-05-29T20:08:39.608Z,8.37
2019-05-29T20:11:09.623Z,9.13
2019-05-29T20:13:39.538Z,10.40
2019-05-29T20:16:09.578Z,11.33
2019-05-29T20:18:39.557Z,9.77
2019-05-29T20:21:09.501Z,9.50
2019-05-29T20:23:39.673Z,9.37
2019-05-29T20:26:09.608Z,11.87
2019-05-29T20:28:40.495Z,12.40
2019-05-29T20:31:12.102Z,12.10
2019-05-29T20:33:42.820Z,12.23
2019-05-29T20:36:12.730Z,13.07
2019-05-29T20:38:43.351Z,13.43
2019-05-29T20:41:13.734Z,10.47
2019-05-29T20:43:43.699Z,11.90
2019-05-29T20:46:13.850Z,11.30
2019-05-29T20:48:44.987Z,9.97
2019-05-29T20:51:15.431Z,9.00
2019-05-29T20:53:45.361Z,9.93
2019-05-29T20:56:15.245Z,10.87
2019-05-29T20:58:45.377Z,12.10
2019-05-29T21:01:15.886Z,12.07
2019-05-29T21:03:46.024Z,11.47
2019-05-29T21:06:15.931Z,11.53
2019-05-29T21:08:45.934Z,14.00
2019-05-29T21:11:16.419Z,14.33
2019-05-29T21:13:46.339Z,14.17
2019-05-29T21:16:16.359Z,16.03
2019-05-29T21:18:46.310Z,15.60
2019-05-29T21:21:16.777Z,16.00
2019-05-29T21:23:46.787Z,15.20
2019-05-29T21:26:16.809Z,14.17
2019-05-29T21:28:50.583Z,15.07
2019-05-29T21:31:18.825Z,14.77
2019-05-29T21:33:49.436Z,14.97
2019-05-29T21:36:19.495Z,16.70
2019-05-29T21:38:49.639Z,16.20
2019-05-29T21:41:19.529Z,14.67
2019-05-29T21:43:49.618Z,13.80
2019-05-29T21:46:20.042Z,12.27
2019-05-29T21:48:49.950Z,15.67
2019-05-29T21:51:20.162Z,14.03
2019-05-29T21:53:50.364Z,14.30
2019-05-29T21:56:20.316Z,13.77
2019-05-29T21:59:02.701Z,13.50
2019-05-29T22:01:22.920Z,13.93
2019-05-29T22:03:54.244Z,13.43
2019-05-29T22:06:24.347Z,14.70
2019-05-29T22:08:54.271Z,15.67
2019-05-29T22:11:24.302Z,14.33
2019-05-29T22:13:54.896Z,15.13
2019-05-29T22:16:24.880Z,13.70
2019-05-29T22:18:54.991Z,17.97
2019-05-29T22:21:25.077Z,16.27
2019-05-29T22:23:55.201Z,14.73
2019-05-29T22:26:25.146Z,18.00
2019-05-29T22:28:55.258Z,17.27
2019-05-29T22:31:25.515Z,18.53
2019-05-29T22:33:55.631Z,17.43
2019-05-29T22:36:25.590Z,18.57
2019-05-29T22:38:56.018Z,19.27
2019-05-29T22:41:26.479Z,17.20
2019-05-29T22:43:57.508Z,17.67
2019-05-29T22:46:27.947Z,18.77
2019-05-29T22:48:57.918Z,17.07
2019-05-29T22:51:28.535Z,15.07
2019-05-29T22:53:58.449Z,18.00
2019-05-29T22:56:28.504Z,15.93
2019-05-29T22:59:00.037Z,17.20
2019-05-29T23:01:30.056Z,16.77
2019-05-29T23:04:00.336Z,15.80
2019-05-29T23:06:30.305Z,18.37
2019-05-29T23:09:00.475Z,16.30
2019-05-29T23:11:30.463Z,15.17
2019-05-29T23:14:00.418Z,18.00
2019-05-29T23:16:30.306Z,16.97
2019-05-29T23:19:00.883Z,16.97
2019-05-29T23:21:30.855Z,15.50
2019-05-29T23:24:01.794Z,18.93
2019-05-29T23:26:31.679Z,17.00
2019-05-29T23:29:03.781Z,16.27
2019-05-29T23:31:33.323Z,16.90
2019-05-29T23:34:03.411Z,16.13
2019-05-29T23:36:33.443Z,15.83
2019-05-29T23:39:03.562Z,16.53
2019-05-29T23:41:33.688Z,16.57
2019-05-29T23:44:04.124Z,19.57
2019-05-29T23:46:34.108Z,19.20
2019-05-29T23:49:04.045Z,15.23
2019-05-29T23:51:34.087Z,20.30
2019-05-29T23:54:04.197Z,24.00
2019-05-29T23:56:34.477Z,24.13
2019-05-29T23:59:04.464Z,20.93
